Time;durP1;ratioP1;P1;durP2;ratioP2;P2;SDS_P1;SDS_P2;PMS_P1;PMS_P2;Temp;Humidity;BMP_temperature;BMP_pressure;BME280_temperature;BME280_humidity;BME280_pressure;Samples;Min_cycle;Max_cycle;Signal;HPM_P1;HPM_P2
2022/02/13 00:00:13;;;;;;;1.33;0.98;;;18.10;57.50;;;;;;4982354;28;20164;-83
2022/02/13 00:02:39;;;;;;;1.65;0.80;;;18.10;57.80;;;;;;4982733;28;20181;-83
2022/02/13 00:05:05;;;;;;;1.73;0.98;;;18.10;57.50;;;;;;4982386;28;20182;-82
2022/02/13 00:07:31;;;;;;;1.77;0.82;;;18.10;57.40;;;;;;4982306;28;20147;-82
2022/02/13 00:09:57;;;;;;;1.27;1.00;;;18.10;57.40;;;;;;4982353;28;20156;-82
2022/02/13 00:12:23;;;;;;;2.22;1.10;;;18.10;57.60;;;;;;4965949;28;20265;-82
2022/02/13 00:14:49;;;;;;;1.80;0.90;;;18.10;57.30;;;;;;4998767;28;20179;-82
2022/02/13 00:17:15;;;;;;;1.38;0.90;;;18.10;57.40;;;;;;4982002;28;20167;-82
2022/02/13 00:19:43;;;;;;;1.10;1.00;;;18.10;57.30;;;;;;4981825;28;20175;-82
2022/02/13 00:22:09;;;;;;;1.83;0.93;;;18.10;57.40;;;;;;4982291;28;20168;-83
2022/02/13 00:24:35;;;;;;;1.90;1.02;;;18.10;57.20;;;;;;4965740;28;20163;-83
2022/02/13 00:27:00;;;;;;;1.55;0.95;;;18.10;57.50;;;;;;4981739;28;20741;-82
2022/02/13 00:29:26;;;;;;;1.50;0.98;;;18.00;57.20;;;;;;4965710;28;20270;-82
2022/02/13 00:31:51;;;;;;;1.20;1.08;;;18.10;57.10;;;;;;4981644;28;20191;-83
2022/02/13 00:34:17;;;;;;;2.33;1.10;;;18.10;57.30;;;;;;4965632;28;20546;-82
2022/02/13 00:36:43;;;;;;;2.33;1.00;;;18.10;57.40;;;;;;4981614;28;20206;-82
2022/02/13 00:39:10;;;;;;;1.77;1.08;;;18.10;57.30;;;;;;4997800;28;20167;-83
2022/02/13 00:41:37;;;;;;;1.70;1.13;;;18.00;57.50;;;;;;4965115;28;20256;-82
2022/02/13 00:44:03;;;;;;;0.98;0.93;;;18.00;57.50;;;;;;4964744;28;20202;-82
2022/02/13 00:46:30;;;;;;;1.60;0.95;;;18.00;57.40;;;;;;4980630;28;20858;-83
2022/02/13 00:48:56;;;;;;;1.67;1.05;;;18.00;57.30;;;;;;4997527;28;20199;-82
2022/02/13 00:51:22;;;;;;;1.85;1.10;;;18.10;57.10;;;;;;4997323;28;20269;-82
2022/02/13 00:53:47;;;;;;;1.75;1.00;;;18.00;57.00;;;;;;4966133;28;20229;-82
2022/02/13 00:56:13;;;;;;;1.17;0.90;;;18.10;57.00;;;;;;4965520;28;20168;-82
2022/02/13 00:58:40;;;;;;;1.73;0.98;;;18.10;57.10;;;;;;4965099;28;20696;-83
2022/02/13 01:01:06;;;;;;;3.15;1.20;;;18.00;57.20;;;;;;4964771;28;20171;-82
2022/02/13 01:03:32;;;;;;;1.20;0.80;;;18.00;57.20;;;;;;4981122;28;20163;-82
2022/02/13 01:05:57;;;;;;;2.03;1.10;;;18.00;57.40;;;;;;4981209;28;20163;-82
2022/02/13 01:08:23;;;;;;;1.52;1.10;;;18.00;57.40;;;;;;4964913;28;20580;-83
2022/02/13 01:10:48;;;;;;;0.98;0.75;;;18.00;57.50;;;;;;4981169;28;20309;-83
2022/02/13 01:13:16;;;;;;;1.67;0.90;;;17.90;57.20;;;;;;4981324;28;20184;-82
2022/02/13 01:15:42;;;;;;;1.88;1.00;;;18.00;57.30;;;;;;4997004;28;20167;-82
2022/02/13 01:18:08;;;;;;;1.50;1.08;;;17.90;57.50;;;;;;4981428;28;20518;-84
2022/02/13 01:20:33;;;;;;;1.58;1.10;;;18.00;57.50;;;;;;4981083;28;20622;-82
2022/02/13 01:22:59;;;;;;;2.28;1.17;;;18.00;57.60;;;;;;4980670;28;20206;-82
2022/02/13 01:25:25;;;;;;;2.17;1.20;;;17.90;57.30;;;;;;4964690;28;20194;-83
2022/02/13 01:27:50;;;;;;;1.90;1.10;;;17.90;57.20;;;;;;5014230;28;20250;-82
2022/02/13 01:30:17;;;;;;;1.52;1.02;;;17.90;57.40;;;;;;4996828;28;20186;-83
2022/02/13 01:32:43;;;;;;;2.00;1.30;;;17.90;57.30;;;;;;4980280;28;20199;-82
2022/02/13 01:35:10;;;;;;;1.20;0.90;;;17.90;57.30;;;;;;4980363;28;20207;-82
2022/02/13 01:37:36;;;;;;;2.30;1.27;;;17.90;57.50;;;;;;4980951;28;20217;-82
2022/02/13 01:40:02;;;;;;;1.17;0.90;;;17.90;57.20;;;;;;4980749;28;20206;-82
2022/02/13 01:42:28;;;;;;;1.33;0.88;;;17.90;57.60;;;;;;5013982;28;20507;-82
2022/02/13 01:44:53;;;;;;;1.17;0.90;;;17.90;57.30;;;;;;4996599;28;20162;-82
2022/02/13 01:47:19;;;;;;;2.08;1.17;;;17.90;57.20;;;;;;4996390;28;20163;-82
2022/02/13 01:49:45;;;;;;;1.88;1.15;;;18.00;57.00;;;;;;4996510;28;20151;-83
2022/02/13 01:52:11;;;;;;;1.90;1.10;;;17.90;57.50;;;;;;4996614;28;20218;-82
2022/02/13 01:54:36;;;;;;;1.58;1.35;;;17.80;57.10;;;;;;4980470;28;20245;-82
2022/02/13 01:57:02;;;;;;;1.95;1.17;;;17.80;57.30;;;;;;4980109;28;20221;-82
2022/02/13 01:59:28;;;;;;;2.03;1.10;;;17.90;57.40;;;;;;4980101;28;20171;-82
2022/02/13 02:01:54;;;;;;;1.80;1.10;;;17.90;57.00;;;;;;4980056;28;20229;-82
2022/02/13 02:04:20;;;;;;;1.25;0.88;;;17.90;56.80;;;;;;4980539;28;20250;-82
2022/02/13 02:06:46;;;;;;;2.28;1.27;;;17.90;57.20;;;;;;4996270;28;20202;-82
2022/02/13 02:09:11;;;;;;;2.17;1.45;;;17.90;57.20;;;;;;4996350;28;20164;-83
2022/02/13 02:11:37;;;;;;;2.15;1.20;;;17.90;57.30;;;;;;5012848;28;20187;-82
2022/02/13 02:14:03;;;;;;;1.70;1.08;;;17.90;57.30;;;;;;5013928;28;20159;-82
2022/02/13 02:16:28;;;;;;;2.63;1.27;;;17.90;57.00;;;;;;4996155;28;20591;-82
2022/02/13 02:18:54;;;;;;;1.90;1.10;;;17.90;57.10;;;;;;5013549;28;20166;-83
2022/02/13 02:21:19;;;;;;;1.92;1.00;;;17.90;57.20;;;;;;4996282;28;20268;-82
2022/02/13 02:23:45;;;;;;;1.83;1.02;;;17.90;56.90;;;;;;4996060;28;20170;-82
2022/02/13 02:26:17;;;;;;;1.58;1.25;;;17.90;57.50;;;;;;5013508;28;20231;-82
2022/02/13 02:28:42;;;;;;;2.63;1.25;;;17.90;57.20;;;;;;4996183;28;20171;-82
2022/02/13 02:31:08;;;;;;;1.83;1.20;;;17.80;57.10;;;;;;4980073;28;20530;-82
2022/02/13 02:33:33;;;;;;;1.75;1.20;;;17.80;57.10;;;;;;4963444;28;20233;-83
2022/02/13 02:36:00;;;;;;;2.63;1.20;;;17.80;57.00;;;;;;4995942;28;20152;-82
2022/02/13 02:38:25;;;;;;;1.98;1.10;;;17.90;57.20;;;;;;4995741;28;20171;-82
2022/02/13 02:40:51;;;;;;;3.25;1.20;;;17.90;57.40;;;;;;4995613;28;20160;-82
2022/02/13 02:43:17;;;;;;;2.17;1.40;;;17.80;57.10;;;;;;4995941;28;20160;-83
2022/02/13 02:45:42;;;;;;;1.85;1.15;;;17.90;57.20;;;;;;5013343;28;20160;-82
2022/02/13 02:48:08;;;;;;;2.60;1.55;;;17.80;57.20;;;;;;5013301;28;20221;-83
2022/02/13 02:50:33;;;;;;;2.30;1.10;;;17.80;57.20;;;;;;4995667;28;20156;-82
2022/02/13 02:52:59;;;;;;;1.60;1.13;;;17.80;57.20;;;;;;4979536;28;20207;-82
2022/02/13 02:55:25;;;;;;;2.10;1.10;;;17.80;56.90;;;;;;4979540;28;20175;-82
2022/02/13 02:57:50;;;;;;;1.65;1.33;;;17.80;57.10;;;;;;4963477;28;20187;-82
2022/02/13 03:00:16;;;;;;;2.08;1.17;;;17.80;57.20;;;;;;5013263;28;20159;-82
2022/02/13 03:02:42;;;;;;;1.67;1.17;;;17.80;57.00;;;;;;4995543;28;20202;-82
2022/02/13 03:05:07;;;;;;;1.73;1.10;;;17.80;57.00;;;;;;4995875;28;20222;-82
2022/02/13 03:07:34;;;;;;;2.85;1.45;;;17.80;57.00;;;;;;4979410;28;20282;-83
2022/02/13 03:10:00;;;;;;;1.10;1.00;;;17.80;57.00;;;;;;4995685;28;20155;-82
2022/02/13 03:12:26;;;;;;;1.30;1.20;;;17.80;57.70;;;;;;4995424;28;20211;-82
2022/02/13 03:14:53;;;;;;;1.95;1.42;;;17.80;57.00;;;;;;4962853;28;20242;-82
2022/02/13 03:17:20;;;;;;;2.17;1.50;;;17.80;57.00;;;;;;4978400;28;20203;-83
2022/02/13 03:19:47;;;;;;;2.03;1.30;;;17.80;56.90;;;;;;4978530;28;20217;-82
2022/02/13 03:22:13;;;;;;;1.67;1.17;;;17.80;57.20;;;;;;4962514;28;20279;-82
2022/02/13 03:24:40;;;;;;;3.20;1.50;;;17.80;56.80;;;;;;4998712;28;20650;-82
2022/02/13 03:27:06;;;;;;;2.15;1.15;;;17.70;57.10;;;;;;4998996;28;20289;-82
2022/02/13 03:29:31;;;;;;;2.30;1.30;;;17.80;57.10;;;;;;4999088;28;20156;-82
2022/02/13 03:31:57;;;;;;;3.20;1.58;;;17.80;57.20;;;;;;4982947;28;20195;-82
2022/02/13 03:34:23;;;;;;;2.25;1.42;;;17.70;57.00;;;;;;4999049;28;20156;-82
2022/02/13 03:36:48;;;;;;;1.65;1.20;;;17.80;57.20;;;;;;4999036;28;20199;-83
2022/02/13 03:39:15;;;;;;;2.45;1.30;;;17.80;56.70;;;;;;4966711;28;20168;-82
2022/02/13 03:41:40;;;;;;;1.95;1.40;;;17.80;56.90;;;;;;4982890;28;20249;-82
2022/02/13 03:44:08;;;;;;;2.58;1.50;;;17.80;56.90;;;;;;4982755;28;20603;-83
2022/02/13 03:46:34;;;;;;;2.08;1.38;;;17.80;57.10;;;;;;4999309;28;20257;-82
2022/02/13 03:48:59;;;;;;;2.22;1.40;;;17.80;57.20;;;;;;4982506;28;20216;-82
2022/02/13 03:51:25;;;;;;;2.72;1.40;;;17.80;56.90;;;;;;5016269;28;20183;-82
2022/02/13 03:53:51;;;;;;;2.70;1.52;;;17.70;56.90;;;;;;4999060;28;20164;-82
2022/02/13 03:56:16;;;;;;;2.63;1.20;;;17.70;57.00;;;;;;5016421;28;20156;-83
2022/02/13 03:58:42;;;;;;;2.17;1.42;;;17.80;57.00;;;;;;5016177;28;20287;-83
2022/02/13 04:01:07;;;;;;;1.88;1.50;;;17.70;57.00;;;;;;4982505;28;20258;-82
2022/02/13 04:03:34;;;;;;;2.30;1.60;;;17.70;57.00;;;;;;4998451;28;20151;-82
2022/02/13 04:05:59;;;;;;;1.35;1.20;;;17.70;56.90;;;;;;4998544;28;20171;-82
2022/02/13 04:08:25;;;;;;;2.42;1.50;;;17.60;56.90;;;;;;4998525;28;20206;-82
2022/02/13 04:10:50;;;;;;;1.38;1.27;;;17.80;56.90;;;;;;4998280;28;20599;-83
2022/02/13 04:13:16;;;;;;;2.88;1.45;;;17.70;56.70;;;;;;4982252;28;20270;-82
2022/02/13 04:15:42;;;;;;;2.35;1.50;;;17.70;56.80;;;;;;4982251;28;20148;-82
2022/02/13 04:18:16;;;;;;;1.75;1.33;;;17.70;56.70;;;;;;4982170;28;20546;-84
2022/02/13 04:20:41;;;;;;;2.30;1.50;;;17.70;56.90;;;;;;4965895;28;20171;-82
2022/02/13 04:23:07;;;;;;;2.35;1.60;;;17.70;56.90;;;;;;4998130;28;20183;-82
2022/02/13 04:25:33;;;;;;;2.40;1.55;;;17.70;56.80;;;;;;4982103;28;20151;-82
2022/02/13 04:27:58;;;;;;;2.22;1.38;;;17.70;56.70;;;;;;4981686;28;20265;-82
2022/02/13 04:30:24;;;;;;;1.90;1.40;;;17.70;56.90;;;;;;4998067;28;20239;-83
2022/02/13 04:32:50;;;;;;;2.80;1.60;;;17.70;56.70;;;;;;4982146;28;20666;-82
2022/02/13 04:35:16;;;;;;;1.58;1.20;;;17.70;56.50;;;;;;4996991;28;20156;-83
2022/02/13 04:37:41;;;;;;;2.80;1.50;;;17.70;56.70;;;;;;4997978;28;20643;-83
2022/02/13 04:40:08;;;;;;;1.92;1.58;;;17.70;56.60;;;;;;4982011;28;20178;-83
2022/02/13 04:42:34;;;;;;;2.53;1.65;;;17.80;56.80;;;;;;4997820;28;20646;-82
2022/02/13 04:45:00;;;;;;;1.83;1.40;;;17.70;56.60;;;;;;4982195;28;20163;-82
2022/02/13 04:47:25;;;;;;;2.33;1.40;;;17.70;56.70;;;;;;4997621;28;20279;-82
2022/02/13 04:49:51;;;;;;;3.53;1.65;;;17.80;56.70;;;;;;4997660;28;20152;-83
2022/02/13 04:52:17;;;;;;;2.08;1.55;;;17.80;56.50;;;;;;4998000;28;20206;-82
2022/02/13 04:54:43;;;;;;;2.35;1.55;;;17.70;56.60;;;;;;4997872;28;20156;-82
2022/02/13 04:57:09;;;;;;;1.80;1.50;;;17.70;56.70;;;;;;4981669;28;20682;-84
2022/02/13 04:59:37;;;;;;;1.38;1.27;;;17.70;56.40;;;;;;5015333;28;20507;-82
2022/02/13 05:02:04;;;;;;;1.75;1.30;;;17.70;56.50;;;;;;5014856;28;20160;-83
2022/02/13 05:04:30;;;;;;;2.33;1.63;;;17.70;56.40;;;;;;4997568;28;20158;-82
2022/02/13 05:06:56;;;;;;;2.25;1.55;;;17.70;56.50;;;;;;4997397;28;20508;-82
2022/02/13 05:09:21;;;;;;;2.38;1.50;;;17.70;56.30;;;;;;4981008;28;20668;-82
2022/02/13 05:11:48;;;;;;;2.05;1.30;;;17.70;56.50;;;;;;4981067;28;20194;-82
2022/02/13 05:14:14;;;;;;;2.13;1.42;;;17.70;56.40;;;;;;4981425;28;20151;-82
2022/02/13 05:16:39;;;;;;;3.55;1.70;;;17.70;56.80;;;;;;4980968;28;20211;-83
2022/02/13 05:19:05;;;;;;;3.05;1.55;;;17.70;56.70;;;;;;4981054;28;20183;-82
2022/02/13 05:21:31;;;;;;;2.20;1.60;;;17.60;56.40;;;;;;4965188;28;20262;-82
2022/02/13 05:23:56;;;;;;;2.85;1.50;;;17.70;56.70;;;;;;4980936;28;20611;-83
2022/02/13 05:26:22;;;;;;;2.58;1.70;;;17.70;56.50;;;;;;4980459;28;20226;-83
2022/02/13 05:28:47;;;;;;;2.25;1.60;;;17.70;56.80;;;;;;5014494;28;20169;-83
2022/02/13 05:31:13;;;;;;;2.60;1.65;;;17.60;56.30;;;;;;4980987;28;20186;-82
2022/02/13 05:33:40;;;;;;;2.67;1.55;;;17.70;56.40;;;;;;4997309;28;20508;-82
2022/02/13 05:36:05;;;;;;;1.65;1.52;;;17.70;56.30;;;;;;5014546;28;20151;-82
2022/02/13 05:38:31;;;;;;;3.00;1.38;;;17.70;56.20;;;;;;4996626;28;20163;-82
2022/02/13 05:40:57;;;;;;;2.65;1.60;;;17.70;56.50;;;;;;4996732;28;20250;-82
2022/02/13 05:43:24;;;;;;;2.83;1.80;;;17.70;56.40;;;;;;4980377;28;20198;-82
2022/02/13 05:45:50;;;;;;;2.70;1.77;;;17.60;56.40;;;;;;4996595;28;20246;-82
2022/02/13 05:48:17;;;;;;;2.53;1.55;;;17.70;56.30;;;;;;4980098;28;20650;-83
2022/02/13 05:50:44;;;;;;;3.60;2.00;;;17.70;56.30;;;;;;4979508;28;20642;-82
2022/02/13 05:53:13;;;;;;;2.85;1.83;;;17.60;56.30;;;;;;4979294;28;20211;-82
2022/02/13 05:55:38;;;;;;;3.25;1.50;;;17.60;56.70;;;;;;4963367;28;20171;-83
2022/02/13 05:58:04;;;;;;;3.05;1.65;;;17.60;56.30;;;;;;5014199;28;20171;-82
2022/02/13 06:00:30;;;;;;;3.00;1.75;;;17.60;56.60;;;;;;4996584;28;20254;-83
2022/02/13 06:02:55;;;;;;;2.63;1.67;;;17.60;56.10;;;;;;4979645;28;20167;-82
2022/02/13 06:05:22;;;;;;;2.63;1.73;;;17.60;56.60;;;;;;4963459;28;20175;-82
2022/02/13 06:07:48;;;;;;;4.88;2.00;;;17.60;56.70;;;;;;4979222;28;20225;-82
2022/02/13 06:10:13;;;;;;;2.17;1.63;;;17.60;56.30;;;;;;4995418;28;20163;-82
2022/02/13 06:12:41;;;;;;;1.77;1.50;;;17.60;56.10;;;;;;4995821;28;20570;-82
2022/02/13 06:15:09;;;;;;;1.95;1.40;;;17.70;56.60;;;;;;4979877;28;20687;-82
2022/02/13 06:17:35;;;;;;;2.88;1.67;;;17.60;56.10;;;;;;4980192;28;20253;-82
2022/02/13 06:20:01;;;;;;;2.35;1.55;;;17.60;56.00;;;;;;4995954;28;20211;-83
2022/02/13 06:22:30;;;;;;;2.80;1.63;;;17.60;56.20;;;;;;5013653;28;20160;-82
2022/02/13 06:24:55;;;;;;;3.13;1.70;;;17.60;56.20;;;;;;4963078;28;20183;-82
2022/02/13 06:27:21;;;;;;;1.48;1.33;;;17.70;56.00;;;;;;4979851;28;20219;-81
2022/02/13 06:29:50;;;;;;;2.75;1.98;;;17.70;56.20;;;;;;5013535;28;20152;-80
2022/02/13 06:32:16;;;;;;;3.13;1.58;;;17.70;56.30;;;;;;4978864;28;20215;-82
2022/02/13 06:34:42;;;;;;;2.88;1.75;;;17.70;56.50;;;;;;4964056;28;20206;-83
2022/02/13 06:37:09;;;;;;;2.42;1.73;;;17.60;56.30;;;;;;4995582;28;20202;-83
2022/02/13 06:39:37;;;;;;;2.45;1.90;;;17.60;56.20;;;;;;4978515;28;20185;-83
2022/02/13 06:42:04;;;;;;;3.22;1.80;;;17.60;56.40;;;;;;4962339;28;20206;-83
2022/02/13 06:44:32;;;;;;;3.13;1.80;;;17.50;56.60;;;;;;4962762;28;20187;-82
2022/02/13 06:46:58;;;;;;;2.30;1.70;;;17.60;56.60;;;;;;4962870;28;20190;-83
2022/02/13 06:49:24;;;;;;;3.20;1.83;;;17.60;56.20;;;;;;4979689;28;20159;-83
2022/02/13 06:51:51;;;;;;;3.03;1.52;;;17.60;56.40;;;;;;4995786;28;20209;-83
2022/02/13 06:54:18;;;;;;;3.05;1.70;;;17.60;56.40;;;;;;4962416;28;20179;-83
2022/02/13 06:56:44;;;;;;;2.88;1.80;;;17.60;56.10;;;;;;4978702;28;20183;-83
2022/02/13 06:59:11;;;;;;;3.83;1.90;;;17.60;56.20;;;;;;4981104;28;20662;-83
2022/02/13 07:01:37;;;;;;;2.92;1.88;;;17.60;55.80;;;;;;4982736;28;20689;-83
2022/02/13 07:04:03;;;;;;;2.50;1.70;;;17.60;56.20;;;;;;4967530;28;20191;-82
2022/02/13 07:06:29;;;;;;;2.40;1.70;;;17.50;56.30;;;;;;4983411;28;20257;-83
2022/02/13 07:08:54;;;;;;;3.08;1.80;;;17.60;56.00;;;;;;4999536;28;20164;-83
2022/02/13 07:11:21;;;;;;;3.67;2.00;;;17.60;56.00;;;;;;4999474;28;20191;-82
2022/02/13 07:13:46;;;;;;;2.28;1.67;;;17.60;56.30;;;;;;5000929;28;20518;-84
2022/02/13 07:16:12;;;;;;;3.40;1.90;;;17.60;56.00;;;;;;5000394;28;20163;-83
2022/02/13 07:18:38;;;;;;;2.65;1.75;;;17.60;56.90;;;;;;5015480;28;20168;-82
2022/02/13 07:21:04;;;;;;;3.20;1.75;;;17.50;56.20;;;;;;4997827;28;20213;-83
2022/02/13 07:23:30;;;;;;;3.03;1.80;;;17.50;56.40;;;;;;4981708;28;20262;-83
2022/02/13 07:25:56;;;;;;;2.92;1.80;;;17.50;56.50;;;;;;4981858;28;20226;-83
2022/02/13 07:31:04;;;;;;;3.03;1.80;;;17.50;56.40;;;;;;5000789;28;20530;-82
2022/02/13 07:33:31;;;;;;;3.08;1.80;;;17.40;56.70;;;;;;4982598;28;20630;-83
2022/02/13 07:35:57;;;;;;;2.53;1.92;;;17.50;56.60;;;;;;4983513;28;20171;-83
2022/02/13 07:38:23;;;;;;;4.28;2.00;;;17.50;56.40;;;;;;4982495;28;20167;-82
2022/02/13 07:40:49;;;;;;;2.75;1.70;;;17.50;56.50;;;;;;5016248;28;20573;-82
2022/02/13 07:43:15;;;;;;;2.58;1.65;;;17.50;56.20;;;;;;4982565;28;20168;-82
2022/02/13 07:45:42;;;;;;;3.72;2.08;;;17.50;56.30;;;;;;4998692;28;20285;-82
2022/02/13 07:48:09;;;;;;;4.03;1.60;;;17.50;56.50;;;;;;4982292;28;20171;-82
2022/02/13 07:50:35;;;;;;;3.97;1.98;;;17.50;57.00;;;;;;4998605;28;20175;-83
2022/02/13 07:53:01;;;;;;;2.92;1.88;;;17.60;55.90;;;;;;4998009;28;20226;-82
2022/02/13 07:55:28;;;;;;;2.53;1.80;;;17.60;56.00;;;;;;4982177;28;20203;-83
2022/02/13 07:57:54;;;;;;;3.08;1.80;;;17.70;56.20;;;;;;4982533;28;20205;-83
2022/02/13 08:00:20;;;;;;;3.13;1.80;;;17.70;55.40;;;;;;5015588;28;20575;-83
2022/02/13 08:02:46;;;;;;;3.30;1.55;;;17.80;55.40;;;;;;4982087;28;20178;-83
2022/02/13 08:05:14;;;;;;;3.20;1.70;;;17.90;54.80;;;;;;4981476;28;20167;-83
2022/02/13 08:07:45;;;;;;;3.28;1.85;;;17.90;55.10;;;;;;5015881;28;20160;-82
2022/02/13 08:10:11;;;;;;;4.28;1.90;;;18.00;54.60;;;;;;4998745;28;20563;-82
2022/02/13 08:12:37;;;;;;;2.78;1.60;;;18.00;54.60;;;;;;4981688;28;20337;-82
2022/02/13 08:15:03;;;;;;;3.50;1.70;;;18.10;54.60;;;;;;4982364;28;20155;-82
2022/02/13 08:17:29;;;;;;;7.38;2.00;;;18.10;54.50;;;;;;4998388;28;20152;-83
2022/02/13 08:19:55;;;;;;;4.32;1.80;;;18.10;54.40;;;;;;4986201;28;20301;-83
2022/02/13 08:22:20;;;;;;;4.32;1.85;;;18.20;54.20;;;;;;4989950;28;20171;-83
2022/02/13 08:24:46;;;;;;;4.80;2.20;;;18.20;54.30;;;;;;4988745;28;20218;-83
2022/02/13 08:27:12;;;;;;;4.20;1.70;;;18.20;54.20;;;;;;5004048;28;20222;-83
2022/02/13 08:29:38;;;;;;;2.90;1.63;;;18.20;54.00;;;;;;4988387;28;20171;-83
2022/02/13 08:32:04;;;;;;;2.80;1.77;;;18.30;54.10;;;;;;5003573;28;20195;-83
2022/02/13 08:34:30;;;;;;;4.97;1.75;;;18.30;53.80;;;;;;5005162;28;20543;-83
2022/02/13 08:36:56;;;;;;;3.83;1.88;;;18.30;53.70;;;;;;4986936;28;20173;-84
2022/02/13 08:39:22;;;;;;;4.55;2.10;;;18.30;53.70;;;;;;4988066;28;20229;-84
2022/02/13 08:41:48;;;;;;;4.10;1.67;;;18.30;53.90;;;;;;5005488;28;20262;-84
2022/02/13 08:44:14;;;;;;;1.98;1.58;;;18.30;53.50;;;;;;5005140;28;20187;-83
2022/02/13 08:46:40;;;;;;;2.70;1.80;;;18.30;53.40;;;;;;4981329;28;20179;-85
2022/02/13 08:49:05;;;;;;;4.30;2.00;;;18.40;53.60;;;;;;5015541;28;20599;-83
2022/02/13 08:51:31;;;;;;;3.72;1.67;;;18.40;53.60;;;;;;4998945;28;20195;-84
2022/02/13 08:53:57;;;;;;;3.78;1.77;;;18.50;53.00;;;;;;5002657;28;20171;-83
2022/02/13 08:56:24;;;;;;;3.95;1.88;;;18.40;53.40;;;;;;5002252;28;20210;-83
2022/02/13 08:58:53;;;;;;;3.58;2.05;;;18.40;53.80;;;;;;4985922;28;20243;-83
2022/02/13 09:01:19;;;;;;;2.97;1.90;;;18.50;53.70;;;;;;4996224;28;20262;-84
2022/02/13 09:03:45;;;;;;;7.03;2.00;;;18.50;53.80;;;;;;5014567;28;20158;-83
2022/02/13 09:06:11;;;;;;;5.30;1.70;;;18.50;53.80;;;;;;4996230;28;20187;-83
2022/02/13 09:08:40;;;;;;;6.55;2.40;;;18.60;54.40;;;;;;4980466;28;20313;-81
2022/02/13 09:11:06;;;;;;;6.97;1.73;;;18.60;53.90;;;;;;4996030;28;20239;-82
2022/02/13 09:13:32;;;;;;;7.03;1.77;;;18.70;54.10;;;;;;4996678;28;20210;-84
2022/02/13 09:15:58;;;;;;;3.58;1.90;;;18.60;53.50;;;;;;4996586;28;20168;-82
2022/02/13 09:18:24;;;;;;;7.00;1.75;;;18.60;53.80;;;;;;4996753;28;20214;-82
2022/02/13 09:20:50;;;;;;;9.35;2.03;;;18.70;53.80;;;;;;5014542;28;20515;-83
2022/02/13 09:23:17;;;;;;;5.90;1.88;;;18.60;53.80;;;;;;4997548;28;20156;-83
2022/02/13 09:25:43;;;;;;;2.90;1.80;;;18.60;53.80;;;;;;4996796;28;20152;-83
2022/02/13 09:28:09;;;;;;;7.32;2.15;;;18.70;53.70;;;;;;4979964;28;20190;-82
2022/02/13 09:30:35;;;;;;;5.57;1.90;;;18.60;53.70;;;;;;4980057;28;20619;-82
2022/02/13 09:33:05;;;;;;;5.20;1.92;;;18.70;53.60;;;;;;4996944;28;20666;-83
2022/02/13 09:35:31;;;;;;;5.82;1.95;;;18.70;53.70;;;;;;4965024;28;20198;-82
2022/02/13 09:37:57;;;;;;;8.15;1.80;;;18.70;53.60;;;;;;4981946;28;20172;-84
2022/02/13 09:40:24;;;;;;;4.65;1.98;;;18.70;53.50;;;;;;4982585;28;20168;-82
2022/02/13 09:42:50;;;;;;;4.82;1.95;;;18.80;53.90;;;;;;5016338;28;20249;-83
2022/02/13 09:45:16;;;;;;;4.22;2.08;;;18.80;53.70;;;;;;4982425;28;20167;-83
2022/02/13 09:47:42;;;;;;;7.05;2.25;;;18.80;53.40;;;;;;4983456;28;20168;-87
2022/02/13 09:50:08;;;;;;;4.10;1.65;;;18.80;53.70;;;;;;4982896;28;20662;-86
2022/02/13 09:52:34;;;;;;;9.23;2.30;;;18.80;53.70;;;;;;5016657;28;20235;-84
2022/02/13 09:55:02;;;;;;;3.35;1.70;;;18.80;53.90;;;;;;4999158;28;20160;-84
2022/02/13 10:00:11;;;;;;;5.70;2.00;;;18.80;53.80;;;;;;4988955;28;20186;-85
2022/02/13 10:02:40;;;;;;;10.18;2.05;;;18.90;54.00;;;;;;4982222;28;20214;-84
2022/02/13 10:05:09;;;;;;;6.28;1.70;;;18.70;54.10;;;;;;4997639;28;20155;-85
2022/02/13 10:07:35;;;;;;;3.00;1.80;;;18.80;54.40;;;;;;4996676;28;20155;-83
2022/02/13 10:10:03;;;;;;;5.60;1.98;;;18.80;54.80;;;;;;4980362;28;20166;-84
2022/02/13 10:12:31;;;;;;;7.00;2.13;;;18.80;54.40;;;;;;4980177;28;20206;-82
2022/02/13 10:14:58;;;;;;;7.97;1.90;;;18.80;54.10;;;;;;5014371;28;20207;-84
2022/02/13 10:17:25;;;;;;;7.00;2.22;;;18.80;54.90;;;;;;5015425;28;20301;-84
2022/02/13 10:19:53;;;;;;;8.00;1.90;;;18.70;54.70;;;;;;4997397;28;20160;-84
2022/02/13 10:22:36;;;;;;;7.53;1.67;;;18.80;55.00;;;;;;4980723;28;20271;-82
2022/02/13 10:25:17;;;;;;;7.53;1.85;;;18.70;55.00;;;;;;5000417;28;20215;-83
2022/02/13 10:27:47;;;;;;;5.55;2.03;;;18.70;55.20;;;;;;4982074;28;20225;-83
2022/02/13 10:30:13;;;;;;;7.25;1.95;;;18.70;54.90;;;;;;4997778;28;20229;-83
2022/02/13 10:32:41;;;;;;;10.30;2.42;;;18.70;55.60;;;;;;4995552;28;20274;-84
2022/02/13 10:35:12;;;;;;;6.55;1.90;;;18.70;55.40;;;;;;4980256;28;20227;-84
2022/02/13 10:37:47;;;;;;;7.50;1.75;;;18.70;55.20;;;;;;4982435;28;20168;-85
2022/02/13 10:40:18;;;;;;;4.38;1.63;;;18.80;55.00;;;;;;4997815;28;20154;-85
2022/02/13 10:42:49;;;;;;;4.88;1.90;;;18.70;54.80;;;;;;4981846;28;20553;-83
2022/02/13 10:45:18;;;;;;;5.57;1.92;;;18.80;54.80;;;;;;4948484;28;20191;-83
2022/02/13 10:47:45;;;;;;;5.95;2.10;;;18.80;54.50;;;;;;4982427;28;20176;-83
2022/02/13 10:50:12;;;;;;;4.75;1.90;;;18.80;54.50;;;;;;4999278;28;20182;-84
2022/02/13 10:52:38;;;;;;;4.70;2.13;;;18.80;54.70;;;;;;5018992;28;20206;-84
2022/02/13 10:55:08;;;;;;;3.80;1.70;;;18.80;54.50;;;;;;4985844;28;20483;-85
2022/02/13 10:57:37;;;;;;;3.53;2.00;;;18.80;54.30;;;;;;4953872;28;20183;-84
2022/02/13 11:00:04;;;;;;;5.43;1.70;;;18.80;54.40;;;;;;5002542;28;20155;-83
2022/02/13 11:02:30;;;;;;;4.85;1.80;;;18.80;54.40;;;;;;5016177;28;20242;-84
2022/02/13 11:04:56;;;;;;;3.83;1.88;;;18.80;54.60;;;;;;4997607;28;20238;-83
2022/02/13 11:07:22;;;;;;;3.65;1.80;;;18.80;54.70;;;;;;5014983;28;20517;-84
2022/02/13 11:09:48;;;;;;;3.80;1.88;;;18.70;54.80;;;;;;4981432;28;20168;-83
2022/02/13 11:12:17;;;;;;;4.28;1.85;;;18.80;54.30;;;;;;4996921;28;20195;-82
2022/02/13 11:14:47;;;;;;;4.43;1.80;;;18.80;54.60;;;;;;4982116;28;20179;-84
2022/02/13 11:17:26;;;;;;;3.65;1.70;;;18.80;54.70;;;;;;4981720;28;20179;-83
2022/02/13 11:19:52;;;;;;;3.60;2.00;;;18.80;54.20;;;;;;4980909;28;20183;-84
2022/02/13 11:22:18;;;;;;;3.60;1.80;;;18.80;54.50;;;;;;4997526;28;20217;-83
2022/02/13 11:24:50;;;;;;;7.45;1.73;;;18.80;54.40;;;;;;5015345;28;20341;-83
2022/02/13 11:27:24;;;;;;;3.53;1.70;;;18.80;54.70;;;;;;4980637;28;20223;-83
2022/02/13 11:29:55;;;;;;;2.90;1.90;;;18.80;54.80;;;;;;4980782;28;20183;-85
2022/02/13 11:32:39;;;;;;;4.75;2.05;;;18.80;54.80;;;;;;4964398;28;20207;-83
2022/02/13 11:35:07;;;;;;;4.10;1.90;;;18.80;54.70;;;;;;4980448;28;20198;-81
2022/02/13 11:37:41;;;;;;;3.92;2.08;;;18.80;54.40;;;;;;4980638;28;20171;-85
2022/02/13 11:40:22;;;;;;;4.68;1.70;;;18.80;54.70;;;;;;4981468;28;20168;-84
2022/02/13 11:42:49;;;;;;;2.55;1.90;;;18.90;55.00;;;;;;4981076;28;20579;-82
2022/02/13 11:45:21;;;;;;;2.35;1.60;;;18.80;54.70;;;;;;5000583;28;20250;-83
2022/02/13 11:47:47;;;;;;;2.45;1.77;;;18.80;54.40;;;;;;5001328;28;20160;-85
2022/02/13 11:50:15;;;;;;;3.20;1.88;;;18.80;54.50;;;;;;5000579;28;20171;-82
2022/02/13 11:52:52;;;;;;;2.45;1.85;;;18.80;54.30;;;;;;5002582;28;20199;-82
2022/02/13 11:55:17;;;;;;;3.38;1.50;;;18.80;54.30;;;;;;4984548;28;20684;-85
2022/02/13 11:58:03;;;;;;;4.65;1.67;;;18.70;54.10;;;;;;5000757;28;20156;-82
2022/02/13 12:00:42;;;;;;;5.25;1.70;;;18.80;54.20;;;;;;5001357;28;20182;-84
2022/02/13 12:03:12;;;;;;;2.10;1.73;;;18.80;54.40;;;;;;4970310;28;20228;-83
2022/02/13 12:05:38;;;;;;;3.85;1.88;;;18.80;54.50;;;;;;4970134;28;20194;-83
2022/02/13 12:08:04;;;;;;;2.60;1.52;;;18.80;54.70;;;;;;4968565;28;20614;-84
2022/02/13 12:10:36;;;;;;;2.45;1.63;;;18.80;54.00;;;;;;5000363;28;20166;-84
2022/02/13 12:13:19;;;;;;;6.55;2.03;;;18.80;54.40;;;;;;4966907;28;20208;-84
2022/02/13 12:15:53;;;;;;;4.18;1.70;;;18.90;54.40;;;;;;4964255;28;20630;-83
2022/02/13 12:18:19;;;;;;;3.90;1.67;;;18.80;54.20;;;;;;4962912;28;20235;-84
2022/02/13 12:20:44;;;;;;;3.08;1.88;;;18.80;54.20;;;;;;4962503;28;20645;-83
2022/02/13 12:23:11;;;;;;;4.70;1.90;;;18.80;54.30;;;;;;4962997;28;20222;-83
2022/02/13 12:25:38;;;;;;;2.60;1.52;;;18.90;54.30;;;;;;4963152;28;20164;-84
2022/02/13 12:28:05;;;;;;;1.70;1.50;;;18.80;54.10;;;;;;4962132;28;20168;-84
2022/02/13 12:30:31;;;;;;;4.38;1.73;;;18.80;54.10;;;;;;4982107;28;20178;-86
2022/02/13 12:32:58;;;;;;;3.88;1.77;;;18.80;54.50;;;;;;4997855;28;20230;-83
2022/02/13 12:35:32;;;;;;;5.45;1.90;;;18.80;54.40;;;;;;4981331;28;20171;-83
2022/02/13 12:37:59;;;;;;;4.05;1.60;;;18.80;54.20;;;;;;4981414;28;20626;-84
2022/02/13 12:40:28;;;;;;;3.10;1.70;;;18.80;54.30;;;;;;4998280;28;20155;-83
2022/02/13 12:43:03;;;;;;;3.92;1.60;;;18.80;54.40;;;;;;4995441;28;20160;-83
2022/02/13 12:45:30;;;;;;;2.58;1.58;;;18.90;54.20;;;;;;4996834;28;20182;-83
2022/02/13 12:47:59;;;;;;;5.13;1.83;;;18.80;54.40;;;;;;4980182;28;20176;-83
2022/02/13 12:50:27;;;;;;;3.97;1.63;;;18.80;54.40;;;;;;4980443;28;20218;-83